createdAt,value
2022-11-07T00:00:18.455Z,100414.16
2022-11-07T00:03:21.826Z,100406.28
2022-11-07T00:06:26.310Z,100404.56
2022-11-07T00:09:29.656Z,100403.91
2022-11-07T00:12:35.240Z,100393.53
2022-11-07T00:15:38.170Z,100395.94
2022-11-07T00:18:41.241Z,100396.69
2022-11-07T00:21:46.133Z,100395.88
2022-11-07T00:24:49.111Z,100396.69
2022-11-07T00:27:52.373Z,100391.50
2022-11-07T00:30:55.433Z,100389.84
2022-11-07T00:33:58.990Z,100385.50
2022-11-07T00:37:03.417Z,100375.97
2022-11-07T00:40:09.000Z,100375.31
2022-11-07T00:43:12.211Z,100380.59
2022-11-07T00:46:17.578Z,100365.06
2022-11-07T00:49:20.733Z,100364.13
2022-11-07T00:52:24.994Z,100360.00
2022-11-07T00:55:27.954Z,100361.94
2022-11-07T00:58:31.674Z,100340.28
2022-11-07T01:01:36.136Z,100335.13
2022-11-07T01:04:57.206Z,100317.75
2022-11-07T01:08:01.530Z,100331.41
2022-11-07T01:11:07.505Z,100321.06
2022-11-07T01:14:11.756Z,100313.94
2022-11-07T01:17:14.690Z,100324.59
2022-11-07T01:20:17.699Z,100328.72
2022-11-07T01:23:22.853Z,100324.00
2022-11-07T01:26:25.811Z,100333.53
2022-11-07T01:29:28.759Z,100333.81
2022-11-07T01:32:31.808Z,100336.22
2022-11-07T01:35:36.004Z,100330.31
2022-11-07T01:38:43.006Z,100316.63
2022-11-07T01:41:46.174Z,100318.91
2022-11-07T01:44:57.522Z,100323.38
2022-11-07T01:48:03.050Z,100316.53
2022-11-07T01:51:06.976Z,100324.09
2022-11-07T01:54:13.221Z,100330.31
2022-11-07T01:57:21.988Z,100341.56
2022-11-07T02:00:26.223Z,100341.13
2022-11-07T02:03:29.197Z,100340.66
2022-11-07T02:06:40.801Z,100335.31
2022-11-07T02:09:45.819Z,100339.00
2022-11-07T02:12:48.978Z,100330.88
2022-11-07T02:15:52.010Z,100321.06
2022-11-07T02:18:55.699Z,100315.88
2022-11-07T02:22:05.694Z,100323.56
2022-11-07T02:25:13.227Z,100316.63
2022-11-07T02:28:18.029Z,100316.63
2022-11-07T02:31:21.042Z,100320.69
2022-11-07T02:34:23.997Z,100315.50
2022-11-07T02:37:31.372Z,100314.56
2022-11-07T02:40:36.323Z,100316.88
2022-11-07T02:43:42.517Z,100318.28
2022-11-07T02:46:45.743Z,100316.81
2022-11-07T02:49:48.915Z,100324.38
2022-11-07T02:52:51.915Z,100322.16
2022-11-07T02:55:56.240Z,100312.03
2022-11-07T02:58:59.889Z,100311.25
2022-11-07T03:02:02.962Z,100319.78
2022-11-07T03:05:07.056Z,100305.53
2022-11-07T03:08:10.052Z,100321.25
2022-11-07T03:11:19.579Z,100311.72
2022-11-07T03:14:22.613Z,100309.88
2022-11-07T03:17:25.588Z,100314.03
2022-11-07T03:20:28.675Z,100306.63
2022-11-07T03:23:32.465Z,100322.25
2022-11-07T03:26:36.938Z,100318.53
2022-11-07T03:29:39.878Z,100321.03
2022-11-07T03:32:43.204Z,100324.47
2022-11-07T03:35:46.305Z,100324.09
2022-11-07T03:38:49.241Z,100329.91
2022-11-07T03:41:53.520Z,100327.66
2022-11-07T03:44:56.531Z,100334.94
2022-11-07T03:47:59.623Z,100336.59
2022-11-07T03:51:02.938Z,100333.72
2022-11-07T03:54:06.035Z,100340.22
2022-11-07T03:57:10.321Z,100341.66
2022-11-07T04:00:16.029Z,100346.25
2022-11-07T04:03:19.109Z,100346.81
2022-11-07T04:06:22.842Z,100334.50
2022-11-07T04:09:25.824Z,100343.63
2022-11-07T04:12:47.550Z,100351.09
2022-11-07T04:16:11.314Z,100349.25
2022-11-07T04:19:16.594Z,100357.56
2022-11-07T04:22:20.418Z,100356.75
2022-11-07T04:25:43.325Z,100348.63
2022-11-07T04:28:46.628Z,100358.19
2022-11-07T04:31:49.545Z,100366.31
2022-11-07T04:34:52.758Z,100365.38
2022-11-07T04:37:55.730Z,100378.16
2022-11-07T04:40:59.358Z,100385.00
2022-11-07T04:44:03.619Z,100390.19
2022-11-07T04:47:06.549Z,100393.09
2022-11-07T04:50:12.847Z,100407.34
2022-11-07T04:53:18.794Z,100406.31
2022-11-07T04:56:21.725Z,100413.91
2022-11-07T04:59:26.088Z,100427.38
2022-11-07T05:02:29.170Z,100433.25
2022-11-07T05:05:32.311Z,100433.41
2022-11-07T05:08:35.427Z,100436.91
2022-11-07T05:11:41.195Z,100442.94
2022-11-07T05:14:45.417Z,100454.38
2022-11-07T05:17:48.409Z,100446.41
2022-11-07T05:20:51.926Z,100454.94
2022-11-07T05:23:54.850Z,100461.88
2022-11-07T05:26:58.023Z,100460.28
2022-11-07T05:30:02.362Z,100466.13
2022-11-07T05:33:05.615Z,100471.22
2022-11-07T05:36:14.827Z,100468.63
2022-11-07T05:39:18.022Z,100476.22
2022-11-07T05:42:20.935Z,100479.66
2022-11-07T05:45:25.165Z,100493.44
2022-11-07T05:48:28.581Z,100491.78
2022-11-07T05:51:31.589Z,100489.38
2022-11-07T05:54:34.501Z,100494.38
2022-11-07T05:57:37.410Z,100498.63
2022-11-07T06:00:42.172Z,100507.34
2022-11-07T06:03:45.136Z,100516.50
2022-11-07T06:06:48.336Z,100518.16
2022-11-07T06:09:51.349Z,100514.75
2022-11-07T06:13:02.060Z,100529.91
2022-11-07T06:16:07.935Z,100523.06
2022-11-07T06:19:10.862Z,100542.06
2022-11-07T06:22:14.154Z,100546.22
2022-11-07T06:25:17.329Z,100549.56
2022-11-07T06:28:20.313Z,100550.78
2022-11-07T06:31:24.644Z,100545.38
2022-11-07T06:34:27.703Z,100545.09
2022-11-07T06:37:30.631Z,100554.47
2022-11-07T06:40:33.678Z,100552.69
2022-11-07T06:43:37.207Z,100552.88
2022-11-07T06:46:41.485Z,100566.16
2022-11-07T06:49:44.422Z,100563.25
2022-11-07T06:52:47.366Z,100565.97
2022-11-07T06:55:50.538Z,100575.31
2022-11-07T06:58:53.531Z,100569.94
2022-11-07T07:01:57.874Z,100574.00
2022-11-07T07:05:01.251Z,100568.81
2022-11-07T07:08:05.293Z,100574.91
2022-11-07T07:11:10.678Z,100580.84
2022-11-07T07:14:13.874Z,100574.31
2022-11-07T07:17:18.577Z,100579.91
2022-11-07T07:20:21.660Z,100591.88
2022-11-07T07:23:24.648Z,100593.16
2022-11-07T07:26:28.393Z,100581.81
2022-11-07T07:29:31.819Z,100590.97
2022-11-07T07:32:37.662Z,100592.44
2022-11-07T07:35:40.606Z,100599.72
2022-11-07T07:38:43.625Z,100598.50
2022-11-07T07:41:48.144Z,100598.94
2022-11-07T07:44:56.454Z,100590.66
2022-11-07T07:48:02.981Z,100593.13
2022-11-07T07:51:06.313Z,100604.25
2022-11-07T07:54:09.574Z,100599.81
2022-11-07T07:57:12.556Z,100608.75
2022-11-07T08:00:16.408Z,100609.19
2022-11-07T08:03:20.726Z,100601.28
2022-11-07T08:06:23.869Z,100611.56
2022-11-07T08:09:26.781Z,100607.13
2022-11-07T08:12:30.041Z,100615.34
2022-11-07T08:15:33.175Z,100619.38
2022-11-07T08:18:39.898Z,100625.84
2022-11-07T08:21:44.871Z,100634.16
2022-11-07T08:24:47.805Z,100633.53
2022-11-07T08:27:51.176Z,100638.53
2022-11-07T08:30:58.156Z,100631.25
2022-11-07T08:34:02.679Z,100627.50
2022-11-07T08:37:05.753Z,100631.13
2022-11-07T08:40:10.411Z,100631.31
2022-11-07T08:43:17.232Z,100630.81
2022-11-07T08:46:20.500Z,100643.72
2022-11-07T08:49:24.928Z,100634.75
2022-11-07T08:52:27.860Z,100641.81
2022-11-07T08:55:34.264Z,100642.06
2022-11-07T08:58:38.344Z,100662.75
2022-11-07T09:02:15.138Z,100653.97
2022-11-07T09:05:06.315Z,100657.09
2022-11-07T09:08:09.230Z,100673.97
2022-11-07T09:11:15.427Z,100669.97
2022-11-07T09:14:18.749Z,100665.38
2022-11-07T09:17:21.754Z,100672.81
2022-11-07T09:20:25.993Z,100671.06
2022-11-07T09:23:29.005Z,100671.22
2022-11-07T09:26:32.442Z,100675.97
2022-11-07T09:29:36.071Z,100681.47
2022-11-07T09:32:45.074Z,100679.53
2022-11-07T09:35:50.237Z,100673.38
2022-11-07T09:38:56.079Z,100693.44
2022-11-07T09:42:07.333Z,100692.22
2022-11-07T09:45:14.109Z,100699.84
2022-11-07T09:48:24.589Z,100698.53
2022-11-07T09:51:38.712Z,100703.69
2022-11-07T09:54:47.201Z,100699.94
2022-11-07T09:57:51.698Z,100704.13
2022-11-07T10:00:58.622Z,100703.28
2022-11-07T10:04:24.251Z,100702.09
2022-11-07T10:07:38.136Z,100712.31
2022-11-07T10:10:47.790Z,100708.75
2022-11-07T10:14:03.122Z,100712.66
2022-11-07T10:17:14.646Z,100719.31
2022-11-07T10:20:31.994Z,100722.16
2022-11-07T10:23:55.591Z,100706.94
2022-11-07T10:26:59.118Z,100714.66
2022-11-07T10:30:02.499Z,100716.69
2022-11-07T10:33:15.217Z,100731.03
2022-11-07T10:36:24.746Z,100719.72
2022-11-07T10:39:32.763Z,100724.22
2022-11-07T10:42:36.170Z,100726.00
2022-11-07T10:45:40.222Z,100719.03
2022-11-07T10:48:52.851Z,100725.81
2022-11-07T10:52:07.721Z,100720.22
2022-11-07T10:55:17.877Z,100728.91
2022-11-07T10:58:23.509Z,100738.69
2022-11-07T11:01:28.263Z,100738.41
2022-11-07T11:04:33.430Z,100745.38
2022-11-07T11:07:39.442Z,100733.47
2022-11-07T11:10:43.958Z,100733.34
2022-11-07T11:13:47.632Z,100740.78
2022-11-07T11:16:55.027Z,100748.53
2022-11-07T11:19:58.209Z,100747.06
2022-11-07T11:23:01.980Z,100740.19
2022-11-07T11:26:09.307Z,100743.75
2022-11-07T11:29:21.408Z,100743.72
2022-11-07T11:32:32.224Z,100748.50
2022-11-07T11:35:42.354Z,100739.97
2022-11-07T11:38:54.293Z,100743.63
2022-11-07T11:42:00.034Z,100733.06
2022-11-07T11:45:17.990Z,100732.53
2022-11-07T11:48:25.927Z,100738.44
2022-11-07T11:51:41.355Z,100740.69
2022-11-07T11:54:46.056Z,100740.47
2022-11-07T11:58:00.647Z,100749.03
2022-11-07T12:01:15.357Z,100751.97
2022-11-07T12:04:39.363Z,100747.00
2022-11-07T12:07:57.324Z,100744.63
2022-11-07T12:11:04.783Z,100742.41
2022-11-07T12:14:57.360Z,100742.16
2022-11-07T12:18:07.010Z,100729.97
2022-11-07T12:21:24.827Z,100740.81
2022-11-07T12:24:38.916Z,100730.72
2022-11-07T12:27:49.171Z,100733.25
2022-11-07T12:31:05.309Z,100729.66
2022-11-07T12:34:26.840Z,100735.88
2022-11-07T12:37:49.510Z,100734.34
2022-11-07T12:41:00.858Z,100733.97
2022-11-07T12:44:21.921Z,100731.53
2022-11-07T12:47:46.506Z,100739.94
2022-11-07T12:50:58.207Z,100736.38
2022-11-07T12:54:20.619Z,100740.91
2022-11-07T12:57:26.226Z,100731.63
2022-11-07T13:00:30.666Z,100734.81
2022-11-07T13:04:00.639Z,100735.78
2022-11-07T13:07:11.583Z,100732.56
2022-11-07T13:10:21.979Z,100726.63
2022-11-07T13:13:36.256Z,100734.03
2022-11-07T13:16:50.640Z,100736.94
2022-11-07T13:20:03.645Z,100742.81
2022-11-07T13:23:16.904Z,100741.41
2022-11-07T13:29:53.379Z,100738.25
2022-11-07T13:32:56.550Z,100743.47
2022-11-07T13:36:15.318Z,100742.66
2022-11-07T13:39:19.139Z,100740.28
2022-11-07T13:42:26.951Z,100735.69
2022-11-07T13:45:39.353Z,100727.31
2022-11-07T13:48:50.167Z,100724.47
2022-11-07T13:51:58.974Z,100729.81
2022-11-07T13:55:09.485Z,100729.38
2022-11-07T13:58:16.398Z,100731.34
2022-11-07T14:01:19.693Z,100724.56
2022-11-07T14:04:23.518Z,100725.41
2022-11-07T14:07:28.462Z,100713.34
2022-11-07T14:10:38.789Z,100710.03
2022-11-07T14:13:42.234Z,100703.75
2022-11-07T14:16:47.322Z,100703.53
2022-11-07T14:19:50.247Z,100703.44
2022-11-07T14:22:57.160Z,100696.06
2022-11-07T14:26:03.568Z,100693.19
2022-11-07T14:29:06.501Z,100693.19
2022-11-07T14:32:18.489Z,100690.50
2022-11-07T14:35:30.650Z,100676.97
2022-11-07T14:38:35.268Z,100676.66
2022-11-07T14:41:42.506Z,100666.44
2022-11-07T14:44:54.459Z,100675.25
2022-11-07T14:47:58.406Z,100662.53
2022-11-07T14:51:03.227Z,100662.41
2022-11-07T14:54:14.491Z,100653.47
2022-11-07T14:57:18.087Z,100657.16
2022-11-07T15:00:23.315Z,100655.78
2022-11-07T15:03:35.548Z,100661.25
2022-11-07T15:06:45.369Z,100654.38
2022-11-07T15:09:51.339Z,100657.34
2022-11-07T15:12:58.695Z,100655.63
2022-11-07T15:16:05.689Z,100659.06
2022-11-07T15:19:11.002Z,100661.53
2022-11-07T15:22:29.910Z,100654.91
2022-11-07T15:25:39.398Z,100652.28
2022-11-07T15:28:47.882Z,100654.66
2022-11-07T15:31:50.834Z,100655.25
2022-11-07T15:35:23.015Z,100657.16
2022-11-07T15:38:23.501Z,100655.63
2022-11-07T15:41:27.783Z,100655.41
2022-11-07T15:44:30.697Z,100646.97
2022-11-07T15:47:34.166Z,100657.06
2022-11-07T15:50:43.455Z,100658.47
2022-11-07T15:53:46.532Z,100654.66
2022-11-07T15:56:54.558Z,100650.63
2022-11-07T16:00:02.639Z,100660.34
2022-11-07T16:03:17.009Z,100662.84
2022-11-07T16:06:30.848Z,100670.34
2022-11-07T16:09:34.105Z,100671.31
2022-11-07T16:12:38.378Z,100663.97
2022-11-07T16:15:47.718Z,100677.06
2022-11-07T16:18:53.610Z,100673.25
2022-11-07T16:21:56.674Z,100673.25
2022-11-07T16:24:59.688Z,100658.19
2022-11-07T16:28:06.131Z,100656.53
2022-11-07T16:31:09.064Z,100666.97
2022-11-07T16:34:13.099Z,100668.75
2022-11-07T16:37:16.329Z,100668.16
2022-11-07T16:40:23.553Z,100668.91
2022-11-07T16:43:27.831Z,100667.25
2022-11-07T16:46:36.446Z,100662.53
2022-11-07T16:49:39.730Z,100669.19
2022-11-07T16:52:43.804Z,100662.69
2022-11-07T16:55:53.529Z,100649.16
2022-11-07T16:58:58.816Z,100656.16
2022-11-07T17:02:02.075Z,100657.22
2022-11-07T17:05:06.125Z,100655.09
2022-11-07T17:08:17.523Z,100662.22
2022-11-07T17:11:21.167Z,100657.47
2022-11-07T17:14:25.433Z,100648.38
2022-11-07T17:17:28.378Z,100641.16
2022-11-07T17:20:50.502Z,100627.09
2022-11-07T17:23:56.079Z,100626.50
2022-11-07T17:26:59.728Z,100621.88
2022-11-07T17:30:08.568Z,100634.22
2022-11-07T17:33:11.930Z,100634.94
2022-11-07T17:36:26.320Z,100643.94
2022-11-07T17:39:29.424Z,100656.41
2022-11-07T17:42:37.728Z,100667.66
2022-11-07T17:45:42.787Z,100670.41
2022-11-07T17:48:47.428Z,100664.97
2022-11-07T17:51:52.724Z,100659.34
2022-11-07T17:54:56.049Z,100658.91
2022-11-07T17:57:58.951Z,100658.78
2022-11-07T18:01:04.900Z,100659.47
2022-11-07T18:04:09.842Z,100671.22
2022-11-07T18:07:13.759Z,100669.94
2022-11-07T18:10:17.943Z,100673.25
2022-11-07T18:13:23.626Z,100683.81
2022-11-07T18:16:32.121Z,100694.84
2022-11-07T18:19:35.283Z,100688.69
2022-11-07T18:22:38.493Z,100700.06
2022-11-07T18:25:41.524Z,100705.66
2022-11-07T18:28:46.265Z,100702.09
2022-11-07T18:31:51.770Z,100694.25
2022-11-07T18:34:54.821Z,100704.69
2022-11-07T18:37:57.903Z,100706.13
2022-11-07T18:41:03.859Z,100702.81
2022-11-07T18:44:07.010Z,100705.53
2022-11-07T18:47:12.136Z,100700.78
2022-11-07T18:50:15.139Z,100701.25
2022-11-07T18:53:19.782Z,100699.94
2022-11-07T18:56:23.224Z,100692.72
2022-11-07T18:59:27.292Z,100691.16
2022-11-07T19:02:33.693Z,100688.31
2022-11-07T19:05:41.065Z,100686.31
2022-11-07T19:08:47.217Z,100682.13
2022-11-07T19:11:50.270Z,100693.16
2022-11-07T19:14:53.981Z,100671.41
2022-11-07T19:17:58.222Z,100675.53
2022-11-07T19:21:01.648Z,100668.88
2022-11-07T19:24:05.754Z,100664.25
2022-11-07T19:27:09.272Z,100666.84
2022-11-07T19:30:15.276Z,100663.63
2022-11-07T19:33:20.253Z,100665.19
2022-11-07T19:36:24.013Z,100664.00
2022-11-07T19:39:27.217Z,100655.13
2022-11-07T19:42:31.343Z,100660.94
2022-11-07T19:45:34.516Z,100660.84
2022-11-07T19:48:38.842Z,100659.28
2022-11-07T19:51:45.043Z,100659.06
2022-11-07T19:54:50.614Z,100659.28
2022-11-07T19:57:54.031Z,100661.66
2022-11-07T20:00:56.994Z,100660.50
2022-11-07T20:04:02.514Z,100665.09
2022-11-07T20:07:05.843Z,100669.16
2022-11-07T20:10:10.063Z,100670.69
2022-11-07T20:13:13.089Z,100676.06
2022-11-07T20:16:17.049Z,100685.16
2022-11-07T20:19:21.420Z,100688.72
2022-11-07T20:22:24.398Z,100682.91
2022-11-07T20:25:27.564Z,100679.59
2022-11-07T20:28:30.639Z,100682.19
2022-11-07T20:31:37.659Z,100675.91
2022-11-07T20:34:41.922Z,100679.69
2022-11-07T20:37:44.972Z,100690.59
2022-11-07T20:40:48.009Z,100693.00
2022-11-07T20:43:55.778Z,100691.09
2022-11-07T20:46:58.793Z,100692.50
2022-11-07T20:50:03.069Z,100700.34
2022-11-07T20:53:06.057Z,100699.16
2022-11-07T20:56:11.229Z,100706.50
2022-11-07T20:59:14.241Z,100700.44
2022-11-07T21:02:18.105Z,100705.59
2022-11-07T21:05:22.397Z,100712.25
2022-11-07T21:08:26.058Z,100726.25
2022-11-07T21:11:30.444Z,100712.91
2022-11-07T21:14:33.456Z,100716.75
2022-11-07T21:17:36.974Z,100722.69
2022-11-07T21:20:41.909Z,100733.13
2022-11-07T21:23:45.473Z,100731.22
2022-11-07T21:26:48.537Z,100727.31
2022-11-07T21:29:52.013Z,100724.31
2022-11-07T21:32:55.049Z,100721.69
2022-11-07T21:35:59.459Z,100723.94
2022-11-07T21:39:03.290Z,100715.50
2022-11-07T21:42:06.704Z,100711.34
2022-11-07T21:45:11.986Z,100705.28
2022-11-07T21:48:16.539Z,100715.28
2022-11-07T21:51:23.782Z,100715.28
2022-11-07T21:54:26.749Z,100702.94
2022-11-07T21:57:29.960Z,100707.94
2022-11-07T22:00:36.297Z,100711.25
2022-11-07T22:07:04.593Z,100721.69
2022-11-07T22:10:09.053Z,100721.91
2022-11-07T22:13:12.740Z,100715.50
2022-11-07T22:16:18.462Z,100711.44
2022-11-07T22:19:21.577Z,100711.44
2022-11-07T22:22:26.074Z,100712.63
2022-11-07T22:25:29.115Z,100708.94
2022-11-07T22:28:32.147Z,100716.06
2022-11-07T22:31:36.166Z,100704.53
2022-11-07T22:34:39.388Z,100709.63
2022-11-07T22:37:43.696Z,100701.66
2022-11-07T22:40:47.474Z,100691.25
2022-11-07T22:43:51.147Z,100709.81
2022-11-07T22:46:54.147Z,100709.91
2022-11-07T22:49:57.407Z,100705.19
2022-11-07T22:53:02.071Z,100700.22
2022-11-07T22:56:08.976Z,100694.75
2022-11-07T22:59:13.570Z,100698.78
2022-11-07T23:02:16.809Z,100697.00
2022-11-07T23:05:19.943Z,100698.78
2022-11-07T23:08:25.689Z,100691.28
2022-11-07T23:11:48.243Z,100685.75
2022-11-07T23:14:52.158Z,100688.34
2022-11-07T23:17:55.122Z,100695.91
2022-11-07T23:21:10.482Z,100697.78
2022-11-07T23:24:15.634Z,100691.84
2022-11-07T23:27:19.559Z,100696.38
2022-11-07T23:30:22.860Z,100682.09
2022-11-07T23:33:25.872Z,100674.88
2022-11-07T23:36:28.894Z,100678.31
2022-11-07T23:39:33.349Z,100682.38
2022-11-07T23:42:36.449Z,100679.50
2022-11-07T23:45:57.119Z,100679.50
2022-11-07T23:49:17.537Z,100675.72
2022-11-07T23:52:20.772Z,100672.03
2022-11-07T23:55:42.356Z,100665.56
2022-11-07T23:59:03.430Z,100671.53
